createdAt,value
2022-12-20T00:04:47.664Z,99098.16
2022-12-20T00:09:50.395Z,99046.50
2022-12-20T00:14:54.509Z,99010.56
2022-12-20T00:19:57.255Z,98962.59
2022-12-20T00:25:00.025Z,98977.75
2022-12-20T00:30:04.453Z,98950.00
2022-12-20T00:35:08.022Z,98918.66
2022-12-20T00:40:11.303Z,98920.41
2022-12-20T00:45:15.477Z,98926.41
2022-12-20T00:50:18.632Z,98880.56
2022-12-20T00:55:21.308Z,98894.19
2022-12-20T01:00:25.881Z,98887.13
2022-12-20T01:05:28.576Z,98875.88
2022-12-20T01:10:31.257Z,98869.31
2022-12-20T01:15:36.311Z,98824.22
2022-12-20T01:20:39.007Z,98796.25
2022-12-20T01:25:41.680Z,98787.44
2022-12-20T01:30:45.757Z,98785.19
2022-12-20T01:35:56.972Z,98785.13
2022-12-20T01:41:00.218Z,98798.50
2022-12-20T01:46:04.331Z,98781.53
2022-12-20T01:51:08.296Z,98820.38
2022-12-20T01:56:12.152Z,98824.28
2022-12-20T02:01:16.554Z,98855.19
2022-12-20T02:06:22.466Z,98833.50
2022-12-20T02:11:33.379Z,98847.28
2022-12-20T02:16:43.077Z,98843.78
2022-12-20T02:21:47.219Z,98837.28
2022-12-20T02:27:04.128Z,98824.25
2022-12-20T02:32:12.817Z,98845.31
2022-12-20T02:37:15.901Z,98880.78
2022-12-20T02:42:23.243Z,98854.09
2022-12-20T02:47:33.422Z,98868.94
2022-12-20T02:52:37.635Z,98862.88
2022-12-20T02:57:45.341Z,98865.50
2022-12-20T03:03:09.176Z,98875.44
2022-12-20T03:08:12.427Z,98910.94
2022-12-20T03:13:15.307Z,98923.09
2022-12-20T03:18:30.358Z,98914.44
2022-12-20T03:23:33.208Z,98948.63
2022-12-20T03:28:36.004Z,98964.63
2022-12-20T03:33:41.083Z,98990.09
2022-12-20T03:38:44.421Z,99009.72
2022-12-20T03:43:47.308Z,99010.13
2022-12-20T03:48:51.651Z,99047.84
2022-12-20T03:53:54.999Z,99073.03
2022-12-20T03:59:04.260Z,99075.66
2022-12-20T04:04:09.134Z,99053.28
2022-12-20T04:09:11.823Z,99074.97
2022-12-20T04:14:21.124Z,99062.97
2022-12-20T04:19:26.299Z,99033.59
2022-12-20T04:24:29.083Z,99026.31
2022-12-20T04:29:46.360Z,99019.59
2022-12-20T04:34:53.391Z,99012.31
2022-12-20T04:39:56.616Z,99006.22
2022-12-20T04:45:04.227Z,99013.50
2022-12-20T04:50:09.324Z,99020.16
2022-12-20T04:55:12.166Z,99037.56
2022-12-20T05:00:15.689Z,99025.03
2022-12-20T05:05:22.886Z,99004.97
2022-12-20T05:10:28.712Z,98979.19
2022-12-20T05:15:34.919Z,98971.19
2022-12-20T05:20:40.106Z,98987.03
2022-12-20T05:26:02.654Z,98971.34
2022-12-20T05:31:05.915Z,98964.44
2022-12-20T05:36:12.785Z,98959.88
2022-12-20T05:41:15.929Z,98944.22
2022-12-20T05:46:22.168Z,98924.19
2022-12-20T05:51:33.674Z,98924.88
2022-12-20T05:56:49.758Z,98891.66
2022-12-20T06:01:57.683Z,98866.25
2022-12-20T06:07:02.366Z,98855.25
2022-12-20T06:12:06.519Z,98819.28
2022-12-20T06:17:11.997Z,98764.13
2022-12-20T06:22:16.101Z,98716.13
2022-12-20T06:27:23.295Z,98691.69
2022-12-20T06:32:36.665Z,98654.97
2022-12-20T06:37:41.397Z,98629.56
2022-12-20T06:42:44.845Z,98609.44
2022-12-20T06:47:47.882Z,98587.44
2022-12-20T06:52:52.238Z,98559.50
2022-12-20T06:57:56.336Z,98555.22
2022-12-20T07:02:59.703Z,98541.13
2022-12-20T07:08:05.222Z,98508.09
2022-12-20T07:13:09.205Z,98497.59
2022-12-20T07:18:12.013Z,98490.59
2022-12-20T07:23:16.089Z,98463.53
2022-12-20T07:28:18.781Z,98451.41
2022-12-20T07:33:21.721Z,98456.75
2022-12-20T07:38:26.308Z,98484.78
2022-12-20T07:43:29.224Z,98509.47
2022-12-20T07:48:31.929Z,98521.19
2022-12-20T07:53:38.794Z,98541.44
2022-12-20T07:58:42.420Z,98579.28
2022-12-20T08:03:46.553Z,98625.38
2022-12-20T08:08:54.434Z,98649.09
2022-12-20T08:13:58.349Z,98677.94
2022-12-20T08:19:01.599Z,98659.88
2022-12-20T08:24:06.177Z,98687.00
2022-12-20T08:29:09.698Z,98702.88
2022-12-20T08:34:12.540Z,98749.28
2022-12-20T08:39:16.615Z,98753.75
2022-12-20T08:44:19.313Z,98785.28
2022-12-20T08:49:22.117Z,98819.81
2022-12-20T08:54:26.179Z,98865.03
2022-12-20T08:59:28.934Z,98886.91
2022-12-20T09:04:31.679Z,98902.81
2022-12-20T09:09:35.796Z,98929.09
2022-12-20T09:14:38.873Z,98930.19
2022-12-20T09:19:42.033Z,98950.28
2022-12-20T09:24:46.098Z,98961.69
2022-12-20T09:29:48.793Z,98965.28
2022-12-20T09:34:51.518Z,98985.66
2022-12-20T09:39:55.597Z,99023.50
2022-12-20T09:45:02.729Z,99032.56
2022-12-20T09:50:06.495Z,99082.53
2022-12-20T09:55:20.789Z,99122.06
2022-12-20T10:00:24.142Z,99155.44
2022-12-20T10:05:40.567Z,99185.06
2022-12-20T10:10:53.677Z,99199.97
2022-12-20T10:16:00.930Z,99221.09
2022-12-20T10:21:08.647Z,99237.81
2022-12-20T10:26:14.405Z,99258.84
2022-12-20T10:31:18.442Z,99262.44
2022-12-20T10:36:24.193Z,99285.50
2022-12-20T10:41:30.473Z,99299.81
2022-12-20T10:46:36.754Z,99324.63
2022-12-20T10:51:39.529Z,99351.28
2022-12-20T10:56:56.263Z,99389.09
2022-12-20T11:01:59.138Z,99397.94
2022-12-20T11:07:03.567Z,99405.09
2022-12-20T11:12:16.385Z,99422.22
2022-12-20T11:17:26.393Z,99468.84
2022-12-20T11:22:37.415Z,99473.75
2022-12-20T11:27:45.742Z,99490.91
2022-12-20T11:33:08.078Z,99510.22
2022-12-20T11:38:16.942Z,99531.63
2022-12-20T11:44:01.103Z,99536.91
2022-12-20T11:49:23.918Z,99536.91
2022-12-20T11:54:30.766Z,99552.88
2022-12-20T11:59:42.687Z,99569.41
2022-12-20T12:04:48.507Z,99578.41
2022-12-20T12:09:57.106Z,99585.88
2022-12-20T12:15:04.654Z,99603.25
2022-12-20T12:20:26.624Z,99624.78
2022-12-20T12:25:29.359Z,99637.78
2022-12-20T12:30:38.387Z,99644.63
2022-12-20T12:35:53.128Z,99640.28
2022-12-20T12:41:17.420Z,99648.13
2022-12-20T12:46:26.006Z,99642.94
2022-12-20T12:51:31.470Z,99634.44
2022-12-20T12:56:45.675Z,99657.09
2022-12-20T13:01:51.884Z,99663.88
2022-12-20T13:07:25.170Z,99661.03
2022-12-20T13:12:49.750Z,99648.31
2022-12-20T13:17:55.355Z,99674.13
2022-12-20T13:23:17.204Z,99674.91
2022-12-20T13:28:44.967Z,99685.31
2022-12-20T13:33:49.676Z,99683.25
2022-12-20T13:38:58.446Z,99694.88
2022-12-20T13:44:04.308Z,99696.31
2022-12-20T13:49:11.628Z,99697.38
2022-12-20T13:54:25.029Z,99697.94
2022-12-20T13:59:33.199Z,99683.16
2022-12-20T14:04:43.309Z,99680.81
2022-12-20T14:09:47.765Z,99668.03
2022-12-20T14:14:52.184Z,99645.94
2022-12-20T14:20:15.672Z,99644.75
2022-12-20T14:25:26.034Z,99615.03
2022-12-20T14:30:31.873Z,99607.75
2022-12-20T14:35:36.057Z,99605.59
2022-12-20T14:40:42.348Z,99594.38
2022-12-20T14:45:45.193Z,99580.72
2022-12-20T14:50:54.719Z,99569.19
2022-12-20T14:55:57.476Z,99547.78
2022-12-20T15:01:01.444Z,99512.25
2022-12-20T15:06:05.762Z,99476.13
2022-12-20T15:11:14.810Z,99437.38
2022-12-20T15:16:19.766Z,99410.88
2022-12-20T15:21:30.286Z,99368.50
2022-12-20T15:26:33.026Z,99310.31
2022-12-20T15:31:36.980Z,99253.91
2022-12-20T15:36:41.153Z,99176.69
2022-12-20T15:41:46.089Z,99112.56
2022-12-20T15:46:49.490Z,99053.75
2022-12-20T15:51:54.789Z,98991.38
2022-12-20T15:56:58.231Z,98930.00
2022-12-20T16:02:01.136Z,98871.16
2022-12-20T16:07:12.213Z,98784.38
2022-12-20T16:12:16.031Z,98712.41
2022-12-20T16:17:18.791Z,98623.88
2022-12-20T16:22:24.159Z,98537.94
2022-12-20T16:27:27.269Z,98450.16
2022-12-20T16:32:30.069Z,98373.91
2022-12-20T16:37:38.916Z,98281.84
2022-12-20T16:42:42.242Z,98197.69
2022-12-20T16:47:45.037Z,98118.84
2022-12-20T16:52:50.259Z,98052.25
2022-12-20T16:57:53.486Z,97988.31
2022-12-20T17:02:59.138Z,97917.34
2022-12-20T17:08:03.589Z,97863.09
2022-12-20T17:13:06.308Z,97805.28
2022-12-20T17:18:09.598Z,97750.09
2022-12-20T17:28:35.962Z,97643.25
2022-12-20T17:33:38.616Z,97593.34
2022-12-20T17:38:42.726Z,97539.06
2022-12-20T17:43:45.398Z,97464.59
2022-12-20T17:48:48.516Z,97379.66
2022-12-20T17:53:54.587Z,97318.38
2022-12-20T17:58:58.162Z,97267.63
2022-12-20T18:04:05.258Z,97222.97
2022-12-20T18:09:14.423Z,97173.94
2022-12-20T18:14:17.414Z,97138.03
2022-12-20T18:19:20.608Z,97092.56
2022-12-20T18:24:24.672Z,97040.88
2022-12-20T18:29:28.495Z,97025.97
2022-12-20T18:34:31.244Z,96994.50
2022-12-20T18:39:35.343Z,96963.84
2022-12-20T18:44:38.023Z,96929.75
2022-12-20T18:49:40.744Z,96915.75
2022-12-20T18:54:44.844Z,96885.13
2022-12-20T18:59:47.540Z,96852.72
2022-12-20T19:04:50.201Z,96808.09
2022-12-20T19:09:54.281Z,96773.13
2022-12-20T19:14:57.024Z,96735.50
2022-12-20T19:19:59.786Z,96713.56
2022-12-20T19:25:03.828Z,96689.03
2022-12-20T19:30:08.036Z,96679.44
2022-12-20T19:35:45.108Z,96671.56
2022-12-20T19:40:35.102Z,96663.75
2022-12-20T19:45:38.493Z,96651.50
2022-12-20T19:50:42.234Z,96632.22
2022-12-20T19:55:53.979Z,96617.31
2022-12-20T20:00:56.688Z,96589.31
2022-12-20T20:05:59.829Z,96563.06
2022-12-20T20:11:09.401Z,96542.03
2022-12-20T20:16:18.225Z,96542.06
2022-12-20T20:21:25.553Z,96530.72
2022-12-20T20:26:31.826Z,96504.44
2022-12-20T20:31:34.494Z,96486.00
2022-12-20T20:36:39.715Z,96457.97
2022-12-20T20:41:43.814Z,96429.06
2022-12-20T20:46:46.604Z,96419.50
2022-12-20T20:51:49.426Z,96410.78
2022-12-20T20:56:53.529Z,96357.28
2022-12-20T21:01:56.301Z,96345.03
2022-12-20T21:06:59.049Z,96326.69
2022-12-20T21:12:03.805Z,96288.22
2022-12-20T21:17:06.607Z,96259.28
2022-12-20T21:22:09.327Z,96219.97
2022-12-20T21:27:13.364Z,96190.16
2022-12-20T21:32:16.050Z,96144.72
2022-12-20T21:37:18.807Z,96095.69
2022-12-20T21:42:22.867Z,96040.44
2022-12-20T21:47:25.659Z,96023.09
2022-12-20T21:52:28.569Z,95963.50
2022-12-20T21:57:32.635Z,95939.94
2022-12-20T22:02:35.434Z,95901.44
2022-12-20T22:07:38.267Z,95865.50
2022-12-20T22:12:42.287Z,95821.44
2022-12-20T22:17:45.051Z,95784.59
2022-12-20T22:22:48.057Z,95779.59
2022-12-20T22:27:52.165Z,95719.81
2022-12-20T22:32:54.887Z,95698.91
2022-12-20T22:37:57.918Z,95664.94
2022-12-20T22:43:02.071Z,95620.34
2022-12-20T22:48:05.212Z,95540.56
2022-12-20T22:53:07.963Z,95511.97
2022-12-20T22:58:12.022Z,95458.59
2022-12-20T23:03:15.075Z,95388.31
2022-12-20T23:08:17.864Z,95330.84
2022-12-20T23:13:39.314Z,95241.50
2022-12-20T23:18:42.037Z,95206.69
2022-12-20T23:23:44.724Z,95108.41
2022-12-20T23:28:49.300Z,95092.78
2022-12-20T23:33:52.408Z,95041.41
2022-12-20T23:38:55.263Z,94980.22
2022-12-20T23:43:59.310Z,94869.81
2022-12-20T23:49:02.088Z,94827.91
2022-12-20T23:54:04.964Z,94935.44
2022-12-20T23:59:09.045Z,94637.56
